SBPV/PVH METAR and TAF weather

Enter ICAO airport designator
Station Type Date Time Source
SBPV METAR 2020/01/29 13:00 UTC NOAA

SBPV 291300Z 06003KT 9999 FEW003 SCT020 BKN100 24/23 Q1012


Station Type Date Time Source
SBPV Decoded METAR 2020/01/29 13:00 UTC NOAA

Porto Velho Aeroporto , Brazil (SBPV) 08-46S 063-55W 102M
Jan 29, 2020 - 08:00 AM EST / 2020.01.29 1300 UTC
Wind: from the ENE (060 degrees) at 3 MPH (3 KT):0
Visibility: greater than 7 mile(s):0
Sky conditions: mostly cloudy
Temperature: 75 F (24 C)
Dew Point: 73 F (23 C)
Relative Humidity: 94%
Pressure (altimeter): 29.88 in. Hg (1012 hPa)
ob: SBPV 291300Z 06003KT 9999 FEW003 SCT020 BKN100 24/23 Q1012
cycle: 13

Station Type Date Time Source
SBPV TAF 2020/01/29 12:33 UTC NOAA

TAF TAF SBPV 290930Z 2912/3012 33005KT 8000 SCT015 FEW033TCU TX30/2917Z TN24/3009Z
BECMG 2913/2915 03005KT SCT030 FEW035TCU
BECMG 2916/2918 7000 SHRA
TEMPO 2918/2923 TS SCT030 FEW035CB PROB40 3000/3005 33005KT 6000 TSRA SCT023 FEW033CB
RMK PHC

Example: see airport list